createdAt,value
2022-11-24T00:01:21.456Z,12.80
2022-11-24T00:04:02.725Z,12.30
2022-11-24T00:06:31.150Z,12.00
2022-11-24T00:08:59.210Z,11.90
2022-11-24T00:11:32.683Z,12.10
2022-11-24T00:13:59.759Z,12.10
2022-11-24T00:16:35.255Z,12.10
2022-11-24T00:19:03.831Z,12.20
2022-11-24T00:21:32.630Z,12.30
2022-11-24T00:23:59.805Z,12.90
2022-11-24T00:26:32.011Z,12.70
2022-11-24T00:29:01.840Z,12.10
2022-11-24T00:31:31.289Z,12.10
2022-11-24T00:34:03.710Z,12.50
2022-11-24T00:36:32.659Z,12.10
2022-11-24T00:39:02.156Z,12.10
2022-11-24T00:41:29.889Z,11.90
2022-11-24T00:43:57.327Z,12.00
2022-11-24T00:46:25.025Z,12.00
2022-11-24T00:48:52.074Z,12.90
2022-11-24T00:51:20.196Z,12.60
2022-11-24T00:53:47.296Z,12.60
2022-11-24T00:56:14.525Z,11.90
2022-11-24T00:58:41.343Z,12.90
2022-11-24T01:01:13.722Z,11.80
2022-11-24T01:03:42.108Z,11.80
2022-11-24T01:06:12.287Z,11.80
2022-11-24T01:08:40.162Z,11.50
2022-11-24T01:11:21.587Z,12.60
2022-11-24T01:13:55.105Z,11.80
2022-11-24T01:16:28.472Z,11.70
2022-11-24T01:18:55.619Z,11.80
2022-11-24T01:21:23.084Z,11.80
2022-11-24T01:23:50.635Z,11.60
2022-11-24T01:26:20.803Z,12.30
2022-11-24T01:28:52.131Z,12.00
2022-11-24T01:31:18.852Z,11.60
2022-11-24T01:33:45.580Z,11.50
2022-11-24T01:36:12.386Z,12.40
2022-11-24T01:38:39.081Z,12.50
2022-11-24T01:41:18.879Z,11.50
2022-11-24T01:43:46.507Z,11.50
2022-11-24T01:46:24.499Z,11.40
2022-11-24T01:49:09.071Z,11.40
2022-11-24T01:51:48.591Z,11.50
2022-11-24T01:54:20.667Z,11.40
2022-11-24T01:56:51.617Z,11.60
2022-11-24T01:59:21.187Z,12.30
2022-11-24T02:01:50.400Z,12.10
2022-11-24T02:04:23.813Z,11.70
2022-11-24T02:06:52.054Z,11.80
2022-11-24T02:09:37.625Z,11.70
2022-11-24T02:12:06.004Z,12.20
2022-11-24T02:14:35.480Z,11.80
2022-11-24T02:17:02.390Z,11.80
2022-11-24T02:19:44.079Z,11.80
2022-11-24T02:22:35.689Z,11.90
2022-11-24T02:25:42.927Z,11.90
2022-11-24T02:28:15.548Z,12.00
2022-11-24T02:30:42.562Z,12.30
2022-11-24T02:33:11.853Z,12.10
2022-11-24T02:35:38.976Z,12.10
2022-11-24T02:38:05.695Z,12.80
2022-11-24T02:40:32.924Z,12.30
2022-11-24T02:43:09.484Z,12.50
2022-11-24T02:45:36.185Z,13.10
2022-11-24T02:48:02.937Z,12.10
2022-11-24T02:50:29.714Z,12.90
2022-11-24T02:52:56.502Z,12.10
2022-11-24T02:55:23.591Z,12.30
2022-11-24T02:57:50.354Z,12.10
2022-11-24T03:00:17.722Z,12.00
2022-11-24T03:02:44.525Z,12.10
2022-11-24T03:05:12.173Z,12.20
2022-11-24T03:07:38.972Z,12.20
2022-11-24T03:10:06.173Z,12.20
2022-11-24T03:12:32.982Z,12.20
2022-11-24T03:14:59.726Z,12.50
2022-11-24T03:17:26.666Z,12.20
2022-11-24T03:19:53.378Z,12.40
2022-11-24T03:22:20.074Z,12.30
2022-11-24T03:24:46.747Z,12.30
2022-11-24T03:27:13.462Z,12.80
2022-11-24T03:29:40.191Z,12.90
2022-11-24T03:32:06.867Z,12.30
2022-11-24T03:34:33.747Z,12.90
2022-11-24T03:37:00.650Z,12.30
2022-11-24T03:39:27.647Z,12.80
2022-11-24T03:41:54.381Z,12.30
2022-11-24T03:44:21.169Z,13.30
2022-11-24T03:46:48.092Z,12.30
2022-11-24T03:49:14.830Z,12.30
2022-11-24T03:51:41.525Z,12.30
2022-11-24T03:54:08.277Z,12.80
2022-11-24T03:56:35.003Z,12.40
2022-11-24T03:59:01.879Z,13.30
2022-11-24T04:01:28.716Z,12.40
2022-11-24T04:03:55.546Z,12.80
2022-11-24T04:06:22.354Z,13.00
2022-11-24T04:08:49.032Z,13.20
2022-11-24T04:11:35.712Z,12.30
2022-11-24T04:14:02.401Z,13.40
2022-11-24T04:16:29.392Z,12.20
2022-11-24T04:18:56.075Z,12.30
2022-11-24T04:21:22.778Z,12.20
2022-11-24T04:23:49.418Z,12.20
2022-11-24T04:26:16.038Z,12.20
2022-11-24T04:28:42.662Z,12.30
2022-11-24T04:31:09.419Z,12.30
2022-11-24T04:33:36.126Z,12.30
2022-11-24T04:36:03.066Z,12.30
2022-11-24T04:39:19.232Z,12.20
2022-11-24T04:41:16.322Z,12.30
2022-11-24T04:43:42.938Z,12.30
2022-11-24T04:46:10.954Z,12.30
2022-11-24T04:48:37.625Z,12.30
2022-11-24T04:51:06.007Z,12.30
2022-11-24T04:53:32.645Z,12.40
2022-11-24T04:55:59.557Z,12.30
2022-11-24T04:58:26.184Z,12.30
2022-11-24T05:00:52.793Z,12.30
2022-11-24T05:03:19.462Z,12.30
2022-11-24T05:05:46.085Z,12.20
2022-11-24T05:08:12.796Z,12.30
2022-11-24T05:10:40.078Z,12.20
2022-11-24T05:13:11.255Z,12.30
2022-11-24T05:15:39.855Z,12.30
2022-11-24T05:18:07.951Z,12.30
2022-11-24T05:20:35.258Z,12.30
2022-11-24T05:23:06.954Z,12.20
2022-11-24T05:25:35.238Z,12.30
2022-11-24T05:28:09.859Z,12.20
2022-11-24T05:30:40.306Z,12.20
2022-11-24T05:33:09.138Z,12.10
2022-11-24T05:35:36.406Z,12.10
2022-11-24T05:38:04.208Z,12.00
2022-11-24T05:40:31.887Z,12.10
2022-11-24T05:42:58.606Z,12.10
2022-11-24T05:45:25.357Z,12.10
2022-11-24T05:47:53.060Z,12.10
2022-11-24T05:50:21.755Z,12.10
2022-11-24T05:52:49.302Z,11.90
2022-11-24T05:55:16.154Z,11.90
2022-11-24T05:57:42.993Z,11.90
2022-11-24T06:00:10.822Z,11.90
2022-11-24T06:02:40.578Z,12.00
2022-11-24T06:05:10.305Z,12.00
2022-11-24T06:07:37.042Z,12.00
2022-11-24T06:10:04.374Z,12.00
2022-11-24T06:12:31.033Z,12.20
2022-11-24T06:14:57.637Z,12.00
2022-11-24T06:17:24.261Z,12.10
2022-11-24T06:19:51.658Z,12.10
2022-11-24T06:22:21.232Z,12.10
2022-11-24T06:24:47.914Z,12.10
2022-11-24T06:27:14.630Z,12.10
2022-11-24T06:29:41.448Z,12.10
2022-11-24T06:32:08.731Z,12.00
2022-11-24T06:34:35.821Z,12.00
2022-11-24T06:37:02.873Z,12.10
2022-11-24T06:39:29.510Z,12.00
2022-11-24T06:41:56.465Z,12.10
2022-11-24T06:44:23.137Z,12.10
2022-11-24T06:46:49.931Z,12.00
2022-11-24T06:49:16.658Z,12.10
2022-11-24T06:51:43.394Z,12.20
2022-11-24T06:54:14.090Z,12.10
2022-11-24T06:56:40.787Z,12.10
2022-11-24T06:59:07.449Z,12.10
2022-11-24T07:01:34.208Z,12.10
2022-11-24T07:04:00.930Z,12.00
2022-11-24T07:06:28.434Z,11.90
2022-11-24T07:08:55.166Z,11.90
2022-11-24T07:11:23.593Z,11.80
2022-11-24T07:13:55.124Z,11.80
2022-11-24T07:16:26.504Z,11.80
2022-11-24T07:18:54.407Z,11.80
2022-11-24T07:21:23.027Z,11.90
2022-11-24T07:23:50.862Z,11.90
2022-11-24T07:26:18.154Z,11.70
2022-11-24T07:28:45.506Z,11.90
2022-11-24T07:31:19.230Z,11.80
2022-11-24T07:33:53.591Z,11.90
2022-11-24T07:36:20.464Z,11.90
2022-11-24T07:38:47.246Z,11.90
2022-11-24T07:41:15.790Z,11.80
2022-11-24T07:43:42.683Z,12.00
2022-11-24T07:46:12.829Z,11.90
2022-11-24T07:48:39.813Z,11.90
2022-11-24T07:51:07.376Z,12.00
2022-11-24T07:53:34.848Z,12.00
2022-11-24T07:56:04.851Z,12.00
2022-11-24T07:58:34.262Z,12.00
2022-11-24T08:01:10.265Z,12.00
2022-11-24T08:03:37.168Z,12.00
2022-11-24T08:08:50.667Z,12.10
2022-11-24T08:11:18.217Z,12.10
2022-11-24T08:13:45.100Z,12.10
2022-11-24T08:16:15.041Z,12.20
2022-11-24T08:18:42.710Z,12.00
2022-11-24T08:21:13.922Z,12.00
2022-11-24T08:23:41.280Z,12.10
2022-11-24T08:26:11.830Z,12.10
2022-11-24T08:28:38.527Z,12.20
2022-11-24T08:31:17.284Z,12.30
2022-11-24T08:33:44.497Z,12.30
2022-11-24T08:36:17.083Z,12.30
2022-11-24T08:38:44.823Z,12.00
2022-11-24T08:41:14.370Z,12.20
2022-11-24T08:43:41.271Z,12.30
2022-11-24T08:46:11.236Z,12.30
2022-11-24T08:48:38.099Z,12.40
2022-11-24T08:51:10.163Z,12.40
2022-11-24T08:53:37.129Z,12.40
2022-11-24T08:56:04.728Z,12.50
2022-11-24T08:58:31.925Z,12.50
2022-11-24T09:01:13.164Z,12.40
2022-11-24T09:03:46.340Z,12.40
2022-11-24T09:06:17.955Z,12.40
2022-11-24T09:08:44.661Z,12.30
2022-11-24T09:11:13.711Z,12.30
2022-11-24T09:13:40.890Z,12.30
2022-11-24T09:16:13.942Z,12.30
2022-11-24T09:18:41.195Z,12.40
2022-11-24T09:21:20.773Z,12.40
2022-11-24T09:23:49.280Z,12.50
2022-11-24T09:26:22.564Z,12.40
2022-11-24T09:28:50.087Z,12.40
2022-11-24T09:31:18.033Z,12.40
2022-11-24T09:33:45.689Z,12.40
2022-11-24T09:36:13.185Z,12.50
2022-11-24T09:38:40.134Z,12.60
2022-11-24T09:41:44.494Z,12.70
2022-11-24T09:44:29.396Z,12.80
2022-11-24T09:47:32.504Z,12.00
2022-11-24T09:50:02.057Z,12.90
2022-11-24T09:52:46.218Z,12.90
2022-11-24T09:55:36.861Z,12.90
2022-11-24T09:58:15.635Z,13.00
2022-11-24T10:00:42.717Z,13.00
2022-11-24T10:03:34.238Z,13.00
2022-11-24T10:06:05.252Z,13.20
2022-11-24T10:08:54.184Z,13.10
2022-11-24T10:11:36.126Z,13.30
2022-11-24T10:14:05.938Z,13.30
2022-11-24T10:16:42.182Z,13.40
2022-11-24T10:19:36.905Z,13.40
2022-11-24T10:22:26.061Z,13.40
2022-11-24T10:25:09.183Z,13.50
2022-11-24T10:27:44.141Z,13.60
2022-11-24T10:30:17.409Z,13.60
2022-11-24T10:32:48.047Z,13.40
2022-11-24T10:35:30.580Z,13.40
2022-11-24T10:38:21.308Z,13.50
2022-11-24T10:40:58.035Z,13.60
2022-11-24T10:43:28.018Z,13.60
2022-11-24T10:46:09.783Z,13.70
2022-11-24T10:48:52.050Z,13.80
2022-11-24T10:51:56.667Z,13.80
2022-11-24T10:54:24.332Z,13.90
2022-11-24T10:56:52.718Z,13.90
2022-11-24T10:59:25.366Z,13.80
2022-11-24T11:01:53.211Z,13.80
2022-11-24T11:04:24.803Z,13.70
2022-11-24T11:06:51.710Z,13.80
2022-11-24T11:09:22.831Z,13.90
2022-11-24T11:11:52.912Z,13.90
2022-11-24T11:14:31.084Z,13.90
2022-11-24T11:16:58.332Z,14.00
2022-11-24T11:19:48.836Z,14.00
2022-11-24T11:22:25.705Z,14.20
2022-11-24T11:25:09.482Z,14.10
2022-11-24T11:27:36.704Z,14.20
2022-11-24T11:36:26.399Z,14.20
2022-11-24T11:38:53.370Z,14.30
2022-11-24T11:41:28.665Z,14.70
2022-11-24T11:44:10.258Z,14.20
2022-11-24T11:46:37.340Z,14.20
2022-11-24T11:49:04.386Z,14.20
2022-11-24T11:52:08.467Z,14.30
2022-11-24T11:55:03.855Z,14.40
2022-11-24T11:57:42.367Z,14.50
2022-11-24T12:00:16.100Z,14.50
2022-11-24T12:03:00.925Z,14.50
2022-11-24T12:05:47.068Z,14.70
2022-11-24T12:08:26.366Z,14.80
2022-11-24T12:11:13.360Z,14.60
2022-11-24T12:14:11.835Z,14.80
2022-11-24T12:16:57.077Z,14.90
2022-11-24T12:19:29.537Z,14.90
2022-11-24T12:22:20.902Z,14.80
2022-11-24T12:25:02.440Z,15.00
2022-11-24T12:27:56.213Z,15.10
2022-11-24T12:30:23.868Z,15.20
2022-11-24T12:33:11.779Z,15.20
2022-11-24T12:35:44.872Z,15.30
2022-11-24T12:38:52.812Z,15.30
2022-11-24T12:41:44.403Z,15.40
2022-11-24T12:44:34.511Z,15.40
2022-11-24T12:47:18.006Z,15.50
2022-11-24T12:50:07.466Z,15.40
2022-11-24T12:52:40.432Z,15.60
2022-11-24T12:55:16.781Z,15.50
2022-11-24T12:57:50.060Z,15.50
2022-11-24T13:00:29.384Z,15.50
2022-11-24T13:03:17.692Z,15.50
2022-11-24T13:06:01.226Z,15.40
2022-11-24T13:08:28.937Z,15.20
2022-11-24T13:11:21.394Z,15.20
2022-11-24T13:14:17.845Z,15.20
2022-11-24T13:19:48.175Z,15.30
2022-11-24T13:22:18.307Z,15.10
2022-11-24T13:24:45.281Z,15.10
2022-11-24T13:27:26.624Z,15.10
2022-11-24T13:29:54.030Z,15.20
2022-11-24T13:32:23.568Z,15.10
2022-11-24T13:34:54.759Z,15.20
2022-11-24T13:37:34.369Z,15.10
2022-11-24T13:40:22.784Z,15.10
2022-11-24T13:43:00.271Z,15.10
2022-11-24T13:45:40.549Z,15.20
2022-11-24T13:48:19.764Z,15.10
2022-11-24T13:50:58.373Z,15.10
2022-11-24T13:53:46.119Z,15.20
2022-11-24T13:56:12.769Z,15.20
2022-11-24T13:58:51.004Z,15.40
2022-11-24T14:01:24.927Z,15.20
2022-11-24T14:04:43.136Z,15.10
2022-11-24T14:07:14.239Z,15.20
2022-11-24T14:09:47.442Z,15.90
2022-11-24T14:12:18.966Z,15.00
2022-11-24T14:14:47.326Z,15.00
2022-11-24T14:17:16.853Z,15.10
2022-11-24T14:19:46.326Z,15.10
2022-11-24T14:22:36.583Z,15.20
2022-11-24T14:25:04.012Z,15.40
2022-11-24T14:27:34.124Z,15.10
2022-11-24T14:30:15.362Z,15.00
2022-11-24T14:33:02.829Z,15.00
2022-11-24T14:35:30.841Z,14.80
2022-11-24T14:38:06.049Z,14.80
2022-11-24T14:40:44.905Z,14.50
2022-11-24T14:43:20.627Z,14.60
2022-11-24T14:45:59.320Z,14.50
2022-11-24T14:48:29.316Z,14.40
2022-11-24T14:51:10.849Z,14.30
2022-11-24T14:53:42.382Z,14.20
2022-11-24T14:56:09.179Z,14.00
2022-11-24T14:58:41.869Z,14.10
2022-11-24T15:01:20.266Z,14.70
2022-11-24T15:03:47.197Z,13.90
2022-11-24T15:06:20.794Z,13.80
2022-11-24T15:08:49.566Z,13.80
2022-11-24T15:11:16.581Z,13.80
2022-11-24T15:13:54.440Z,13.70
2022-11-24T15:16:24.897Z,13.60
2022-11-24T15:19:02.106Z,13.50
2022-11-24T15:21:36.590Z,13.40
2022-11-24T15:24:17.609Z,13.50
2022-11-24T15:26:45.514Z,13.30
2022-11-24T15:29:12.966Z,13.30
2022-11-24T15:31:41.167Z,13.30
2022-11-24T15:34:12.078Z,15.10
2022-11-24T15:36:38.693Z,13.30
2022-11-24T15:39:05.369Z,13.30
2022-11-24T15:41:33.445Z,13.10
2022-11-24T15:44:00.219Z,13.10
2022-11-24T15:46:37.507Z,13.00
2022-11-24T15:49:04.993Z,13.00
2022-11-24T15:51:31.894Z,13.10
2022-11-24T15:54:01.101Z,12.90
2022-11-24T15:56:35.575Z,12.90
2022-11-24T15:59:02.817Z,12.50
2022-11-24T16:01:31.956Z,12.80
2022-11-24T16:03:58.777Z,12.80
2022-11-24T16:06:25.763Z,12.70
2022-11-24T16:08:55.478Z,12.70
2022-11-24T16:11:22.767Z,12.80
2022-11-24T16:13:53.365Z,12.70
2022-11-24T16:16:22.471Z,12.60
2022-11-24T16:18:49.334Z,12.70
2022-11-24T16:21:16.066Z,12.70
2022-11-24T16:23:42.756Z,12.60
2022-11-24T16:26:10.327Z,12.60
2022-11-24T16:28:37.071Z,12.60
2022-11-24T16:31:04.099Z,12.70
2022-11-24T16:33:30.917Z,12.60
2022-11-24T16:35:57.642Z,12.50
2022-11-24T16:38:24.646Z,12.60
2022-11-24T16:40:53.437Z,12.60
2022-11-24T16:43:20.385Z,12.60
2022-11-24T16:46:06.672Z,12.50
2022-11-24T16:48:36.648Z,12.50
2022-11-24T16:51:07.744Z,12.50
2022-11-24T16:53:34.571Z,12.60
2022-11-24T16:56:01.518Z,12.50
2022-11-24T16:58:28.640Z,12.50
2022-11-24T17:00:55.476Z,12.50
2022-11-24T17:03:22.244Z,12.40
2022-11-24T17:05:58.891Z,12.40
2022-11-24T17:08:25.861Z,12.50
2022-11-24T17:10:52.639Z,12.40
2022-11-24T17:13:19.245Z,12.50
2022-11-24T17:15:51.033Z,12.40
2022-11-24T17:18:25.293Z,12.50
2022-11-24T17:20:52.398Z,12.30
2022-11-24T17:23:19.541Z,12.40
2022-11-24T17:25:46.314Z,12.40
2022-11-24T17:28:13.027Z,12.40
2022-11-24T17:30:39.804Z,12.50
2022-11-24T17:33:06.477Z,12.50
2022-11-24T17:35:36.809Z,12.40
2022-11-24T17:38:03.766Z,12.40
2022-11-24T17:40:30.515Z,12.40
2022-11-24T17:43:00.738Z,12.50
2022-11-24T17:45:28.843Z,12.40
2022-11-24T17:47:56.237Z,12.50
2022-11-24T17:50:25.921Z,12.40
2022-11-24T17:52:53.931Z,12.40
2022-11-24T17:55:21.069Z,12.30
2022-11-24T17:57:47.724Z,12.30
2022-11-24T18:00:15.075Z,12.30
2022-11-24T18:02:42.169Z,12.30
2022-11-24T18:05:09.125Z,12.30
2022-11-24T18:07:36.705Z,12.30
2022-11-24T18:10:03.922Z,12.30
2022-11-24T18:12:30.547Z,12.30
2022-11-24T18:14:57.227Z,12.20
2022-11-24T18:17:24.004Z,12.30
2022-11-24T18:19:50.718Z,12.40
2022-11-24T18:22:17.667Z,12.30
2022-11-24T18:24:45.825Z,12.30
2022-11-24T18:27:12.548Z,12.30
2022-11-24T18:29:39.241Z,12.30
2022-11-24T18:32:06.325Z,12.30
2022-11-24T18:34:33.384Z,12.30
2022-11-24T18:37:00.259Z,12.30
2022-11-24T18:39:28.284Z,12.30
2022-11-24T18:41:55.101Z,12.40
2022-11-24T18:44:21.777Z,12.30
2022-11-24T18:46:49.082Z,12.30
2022-11-24T18:49:15.711Z,12.30
2022-11-24T18:51:42.716Z,12.30
2022-11-24T18:54:09.400Z,12.20
2022-11-24T18:56:36.046Z,12.70
2022-11-24T18:59:02.731Z,12.20
2022-11-24T19:01:29.925Z,12.20
2022-11-24T19:04:00.429Z,12.20
2022-11-24T19:06:33.064Z,12.10
2022-11-24T19:09:02.759Z,12.20
2022-11-24T19:11:35.535Z,12.20
2022-11-24T19:14:04.988Z,12.10
2022-11-24T19:16:32.065Z,12.10
2022-11-24T19:19:00.101Z,12.10
2022-11-24T19:21:28.258Z,12.10
2022-11-24T19:23:58.501Z,12.00
2022-11-24T19:26:27.992Z,12.00
2022-11-24T19:28:54.957Z,12.00
2022-11-24T19:31:21.604Z,12.00
2022-11-24T19:33:48.469Z,12.00
2022-11-24T19:36:17.850Z,12.00
2022-11-24T19:38:56.431Z,12.00
2022-11-24T19:41:25.961Z,12.00
2022-11-24T19:43:56.295Z,12.00
2022-11-24T19:46:27.041Z,12.00
2022-11-24T19:48:56.023Z,12.00
2022-11-24T19:51:25.402Z,12.00
2022-11-24T19:53:52.321Z,11.90
2022-11-24T19:56:21.201Z,12.00
2022-11-24T19:58:48.604Z,11.90
2022-11-24T20:01:24.976Z,12.00
2022-11-24T20:04:13.076Z,11.90
2022-11-24T20:06:42.290Z,11.90
2022-11-24T20:09:11.325Z,11.80
2022-11-24T20:11:38.953Z,11.90
2022-11-24T20:14:07.122Z,11.90
2022-11-24T20:16:35.046Z,11.90
2022-11-24T20:19:07.385Z,11.90
2022-11-24T20:21:36.009Z,11.90
2022-11-24T20:24:08.426Z,12.00
2022-11-24T20:26:38.191Z,11.90
2022-11-24T20:29:06.231Z,11.90
2022-11-24T20:31:46.181Z,11.80
2022-11-24T20:34:13.625Z,11.90
2022-11-24T20:36:42.581Z,11.80
2022-11-24T20:39:15.634Z,11.80
2022-11-24T20:41:42.310Z,11.90
2022-11-24T20:44:13.637Z,11.90
2022-11-24T20:46:41.837Z,11.90
2022-11-24T20:49:12.958Z,11.90
2022-11-24T20:51:43.741Z,12.00
2022-11-24T20:54:12.769Z,12.00
2022-11-24T20:56:41.352Z,12.00
2022-11-24T20:59:10.074Z,11.90
2022-11-24T21:01:38.692Z,12.00
2022-11-24T21:04:11.438Z,12.10
2022-11-24T21:06:38.873Z,12.10
2022-11-24T21:09:06.978Z,12.10
2022-11-24T21:11:34.252Z,12.10
2022-11-24T21:14:01.881Z,12.10
2022-11-24T21:16:34.639Z,12.20
2022-11-24T21:19:04.132Z,12.10
2022-11-24T21:21:35.760Z,12.10
2022-11-24T21:24:05.185Z,12.20
2022-11-24T21:26:34.994Z,12.20
2022-11-24T21:29:01.606Z,12.20
2022-11-24T21:31:28.307Z,12.30
2022-11-24T21:33:55.461Z,12.20
2022-11-24T21:36:24.678Z,12.30
2022-11-24T21:38:53.672Z,12.30
2022-11-24T21:41:21.363Z,12.30
2022-11-24T21:43:48.419Z,12.30
2022-11-24T21:46:15.528Z,12.40
2022-11-24T21:48:42.739Z,12.40
2022-11-24T21:51:18.120Z,12.30
2022-11-24T21:53:45.698Z,12.30
2022-11-24T21:56:19.681Z,12.30
2022-11-24T21:58:51.764Z,12.30
2022-11-24T22:01:20.680Z,12.30
2022-11-24T22:03:47.506Z,12.20
2022-11-24T22:06:15.369Z,12.30
2022-11-24T22:08:42.091Z,12.30
2022-11-24T22:11:16.749Z,12.30
2022-11-24T22:13:44.619Z,12.30
2022-11-24T22:16:19.757Z,12.30
2022-11-24T22:18:46.639Z,12.30
2022-11-24T22:21:23.729Z,12.40
2022-11-24T22:23:52.551Z,12.30
2022-11-24T22:26:21.560Z,12.40
2022-11-24T22:28:48.642Z,12.40
2022-11-24T22:31:24.340Z,12.40
2022-11-24T22:33:52.115Z,12.30
2022-11-24T22:36:23.136Z,12.40
2022-11-24T22:38:54.734Z,12.30
2022-11-24T22:41:21.746Z,12.30
2022-11-24T22:43:49.014Z,12.30
2022-11-24T22:46:20.656Z,12.30
2022-11-24T22:48:48.917Z,12.30
2022-11-24T22:51:21.204Z,12.40
2022-11-24T22:53:53.326Z,12.30
2022-11-24T22:56:20.664Z,12.30
2022-11-24T22:58:47.997Z,12.40
2022-11-24T23:01:23.425Z,12.30
2022-11-24T23:03:53.593Z,12.30
2022-11-24T23:06:25.185Z,12.30
2022-11-24T23:08:52.735Z,12.40
2022-11-24T23:11:33.829Z,12.30
2022-11-24T23:14:03.898Z,12.40
2022-11-24T23:16:30.716Z,12.30
2022-11-24T23:18:57.998Z,12.30
2022-11-24T23:21:28.144Z,12.30
2022-11-24T23:23:55.381Z,12.30
2022-11-24T23:26:27.919Z,12.40
2022-11-24T23:28:54.949Z,12.30
2022-11-24T23:31:24.463Z,12.40
2022-11-24T23:33:51.240Z,12.40
2022-11-24T23:36:20.085Z,12.40
2022-11-24T23:38:47.554Z,12.40
2022-11-24T23:41:16.693Z,12.40
2022-11-24T23:43:43.659Z,12.30
2022-11-24T23:46:20.405Z,12.40
2022-11-24T23:48:48.114Z,12.40
2022-11-24T23:51:17.456Z,12.30
2022-11-24T23:53:44.726Z,12.40
2022-11-24T23:56:13.722Z,12.40
2022-11-24T23:58:40.850Z,12.30
